Time;durP1;ratioP1;P1;durP2;ratioP2;P2;SDS_P1;SDS_P2;PMS_P1;PMS_P2;Temp;Humidity;BMP_temperature;BMP_pressure;BME280_temperature;BME280_humidity;BME280_pressure;Samples;Min_cycle;Max_cycle;Signal;HPM_P1;HPM_P2
2023/09/29 00:00:34;;;;;;;17.92;3.45;;;;;;;-146.27;66.62;81331.72;5020856;28;20033;-70
2023/09/29 00:03:00;;;;;;;10.85;2.95;;;;;;;-146.27;66.76;81323.69;5019785;28;20103;-69
2023/09/29 00:05:27;;;;;;;18.08;3.28;;;;;;;-146.27;66.81;81337.75;5022759;28;20595;-69
2023/09/29 00:07:54;;;;;;;14.40;3.30;;;;;;;-146.27;66.45;81289.53;5027229;28;20048;-71
2023/09/29 00:10:23;;;;;;;9.25;2.72;;;;;;;-146.27;66.62;81243.34;5025524;28;20511;-69
2023/09/29 00:12:49;;;;;;;8.75;2.63;;;;;;;-146.27;66.34;81239.34;5023232;28;20032;-71
2023/09/29 00:15:17;;;;;;;16.65;3.60;;;;;;;-146.27;66.41;81259.41;5017118;28;20058;-70
2023/09/29 00:17:42;;;;;;;14.60;2.88;;;;;;;-146.27;66.29;81265.44;5020468;28;20033;-70
2023/09/29 00:20:24;;;;;;;16.35;3.28;;;;;;;-146.27;66.21;81271.47;5031128;28;20038;-71
2023/09/29 00:22:54;;;;;;;15.45;3.28;;;;;;;-146.27;65.98;81239.34;5023286;28;20029;-68
2023/09/29 00:25:20;;;;;;;16.17;3.13;;;;;;;-146.27;65.79;81225.28;5022099;28;20051;-69
2023/09/29 00:27:46;;;;;;;15.15;2.88;;;;;;;-146.27;65.42;81235.31;5024340;28;20543;-70
2023/09/29 00:30:12;;;;;;;14.73;3.05;;;;;;;-146.27;65.21;81223.25;5020739;28;20055;-69
2023/09/29 00:32:56;;;;;;;11.45;2.95;;;;;;;-146.27;64.96;81223.25;5028519;28;20052;-70
2023/09/29 00:35:29;;;;;;;13.75;2.92;;;;;;;-146.27;64.91;81215.22;5028230;28;20029;-69
2023/09/29 00:37:56;;;;;;;10.88;2.92;;;;;;;-146.27;64.68;81197.16;5027093;28;20034;-72
2023/09/29 00:40:22;;;;;;;18.20;2.88;;;;;;;-146.27;64.67;81251.38;5024799;28;20056;-71
2023/09/29 00:42:48;;;;;;;13.88;2.83;;;;;;;-146.27;64.79;81211.22;5023838;28;20371;-71
2023/09/29 00:45:16;;;;;;;16.50;3.10;;;;;;;-146.27;64.57;81203.19;5015923;28;20030;-68
2023/09/29 00:47:45;;;;;;;16.35;3.75;;;;;;;-146.27;64.56;81195.16;5030082;28;20488;-71
2023/09/29 00:50:11;;;;;;;15.32;2.70;;;;;;;-146.27;64.29;81223.25;5015445;28;20110;-71
2023/09/29 00:52:39;;;;;;;18.15;3.10;;;;;;;-146.27;64.45;81235.31;5030417;28;20029;-71
2023/09/29 00:55:11;;;;;;;16.73;3.40;;;;;;;-146.27;64.16;81227.28;5027775;28;20219;-71
2023/09/29 00:57:39;;;;;;;10.35;2.40;;;;;;;-146.27;64.16;81179.09;5020790;28;20036;-72
2023/09/29 01:00:13;;;;;;;15.55;3.05;;;;;;;-146.27;63.99;81217.25;5016944;28;20557;-70
2023/09/29 01:02:39;;;;;;;20.67;3.30;;;;;;;-146.27;63.82;81175.06;5022111;28;20033;-70
2023/09/29 01:05:05;;;;;;;11.38;3.17;;;;;;;-146.27;63.73;81203.19;5026268;28;20112;-70
2023/09/29 01:07:31;;;;;;;15.10;3.33;;;;;;;-146.27;63.69;81191.13;5018450;28;20030;-71
2023/09/29 01:09:57;;;;;;;18.48;2.80;;;;;;;-146.27;63.55;81183.09;5021442;28;20036;-71
2023/09/29 01:12:29;;;;;;;13.55;3.20;;;;;;;-146.27;63.86;81193.16;5020074;28;20029;-70
2023/09/29 01:14:54;;;;;;;7.10;2.27;;;;;;;-146.27;63.87;81171.06;5018960;28;20110;-71
2023/09/29 01:17:20;;;;;;;8.07;2.45;;;;;;;-146.27;63.84;81195.16;5026903;28;20552;-70
2023/09/29 01:19:45;;;;;;;8.55;2.38;;;;;;;-146.27;63.72;81177.06;5020756;28;20026;-70
2023/09/29 01:22:11;;;;;;;10.73;2.80;;;;;;;-146.27;63.85;81217.25;5022591;28;20078;-70
2023/09/29 01:24:36;;;;;;;12.88;3.33;;;;;;;-146.27;63.65;81199.16;5023190;28;20060;-70
2023/09/29 01:27:02;;;;;;;11.73;3.08;;;;;;;-146.27;63.57;81179.09;5016617;28;20045;-70
2023/09/29 01:29:27;;;;;;;12.25;2.85;;;;;;;-146.27;63.55;81157.00;5028035;28;20025;-70
2023/09/29 01:31:52;;;;;;;16.42;2.90;;;;;;;-146.27;63.37;81150.97;5023248;28;20083;-70
2023/09/29 01:34:18;;;;;;;10.65;3.35;;;;;;;-146.27;63.62;81155.00;5019644;28;20056;-68
2023/09/29 01:36:44;;;;;;;15.40;3.08;;;;;;;-146.27;63.54;81138.91;5020088;28;20454;-70
2023/09/29 01:39:09;;;;;;;14.40;2.42;;;;;;;-146.27;63.87;81165.03;5020323;28;20112;-70
2023/09/29 01:41:34;;;;;;;13.38;2.85;;;;;;;-146.27;64.03;81175.06;5019162;28;20068;-70
2023/09/29 01:44:00;;;;;;;16.10;3.05;;;;;;;-146.27;64.40;81177.06;5019550;28;20124;-71
2023/09/29 01:46:25;;;;;;;12.65;2.90;;;;;;;-146.27;64.52;81171.06;5014859;28;20477;-69
2023/09/29 01:48:50;;;;;;;14.68;3.38;;;;;;;-146.27;64.78;81169.03;5028615;28;20858;-70
2023/09/29 01:51:17;;;;;;;15.18;3.25;;;;;;;-146.27;64.99;81181.09;5018491;28;20056;-70
2023/09/29 01:53:45;;;;;;;16.45;2.92;;;;;;;-146.27;65.09;81173.06;5028644;28;20603;-69
2023/09/29 01:56:10;;;;;;;16.33;2.85;;;;;;;-146.27;65.41;81211.22;5019200;28;20018;-70
2023/09/29 01:58:36;;;;;;;15.10;3.70;;;;;;;-146.27;66.06;81217.25;5020594;28;20482;-69
2023/09/29 02:01:01;;;;;;;15.70;4.32;;;;;;;-146.27;66.51;81207.19;5018526;28;21067;-70
2023/09/29 02:03:27;;;;;;;17.13;3.10;;;;;;;-146.27;66.15;81205.19;5025454;28;20113;-70
2023/09/29 02:05:52;;;;;;;16.02;3.10;;;;;;;-146.27;66.69;81199.16;5020057;28;20076;-70
2023/09/29 02:08:18;;;;;;;12.77;3.03;;;;;;;-146.27;66.31;81165.03;5027463;28;20489;-70
2023/09/29 02:10:48;;;;;;;17.80;3.45;;;;;;;-146.27;65.93;81148.97;5016141;28;20038;-70
2023/09/29 02:13:15;;;;;;;8.70;2.58;;;;;;;-146.27;65.96;81187.13;5023990;28;20108;-70
2023/09/29 02:15:41;;;;;;;12.75;2.67;;;;;;;-146.27;66.68;81225.28;5028366;28;20034;-70
2023/09/29 02:18:09;;;;;;;14.88;3.47;;;;;;;-146.27;66.95;81165.03;5023676;28;20025;-70
2023/09/29 02:20:36;;;;;;;18.25;3.67;;;;;;;-146.27;67.01;81199.16;5020681;28;20032;-70
2023/09/29 02:23:02;;;;;;;20.58;4.15;;;;;;;-146.27;66.97;81183.09;5018081;28;20652;-70
2023/09/29 02:25:28;;;;;;;17.02;3.58;;;;;;;-146.27;66.80;81207.19;5018726;28;20056;-70
2023/09/29 02:27:57;;;;;;;9.65;3.17;;;;;;;-146.27;66.73;81195.16;5023777;28;20033;-70
2023/09/29 02:30:24;;;;;;;13.38;3.33;;;;;;;-146.27;66.63;81150.97;5026504;28;20021;-70
2023/09/29 02:32:53;;;;;;;11.32;2.95;;;;;;;-146.27;66.42;81183.09;5023942;28;20025;-69
2023/09/29 02:35:20;;;;;;;16.65;3.03;;;;;;;-146.27;66.73;81171.06;5024322;28;20381;-69
2023/09/29 02:37:46;;;;;;;12.52;3.42;;;;;;;-146.27;67.43;81177.06;5019269;28;20032;-69
2023/09/29 02:40:12;;;;;;;15.52;2.92;;;;;;;-146.27;68.17;81237.31;5029254;28;20065;-70
2023/09/29 02:42:38;;;;;;;15.82;3.25;;;;;;;-146.27;68.47;81169.03;5028012;28;20433;-70
2023/09/29 02:45:05;;;;;;;11.95;3.58;;;;;;;-146.27;69.49;81225.28;5022595;28;20112;-70
2023/09/29 02:47:30;;;;;;;14.88;3.40;;;;;;;-146.27;69.80;81215.22;5025815;28;20121;-70
2023/09/29 02:49:59;;;;;;;12.02;3.28;;;;;;;-146.27;69.61;81189.13;5032440;28;20076;-69
2023/09/29 02:52:26;;;;;;;14.82;3.03;;;;;;;-146.27;69.75;81239.34;5031864;28;20052;-69
2023/09/29 02:54:54;;;;;;;13.98;2.78;;;;;;;-146.27;69.87;81229.28;5024888;28;20482;-70
2023/09/29 02:57:20;;;;;;;8.75;2.95;;;;;;;-146.27;70.73;81251.38;5027797;28;20094;-69
2023/09/29 02:59:46;;;;;;;12.80;2.60;;;;;;;-146.27;70.18;81219.25;5033304;28;20021;-70
2023/09/29 03:02:12;;;;;;;12.80;3.08;;;;;;;-146.27;71.08;81275.47;5023611;28;20029;-71
2023/09/29 03:04:39;;;;;;;9.32;2.78;;;;;;;-146.27;71.05;81279.50;5032854;28;20029;-69
2023/09/29 03:07:05;;;;;;;14.68;3.92;;;;;;;-146.27;70.89;81271.47;5028586;28;20041;-70
2023/09/29 03:09:33;;;;;;;16.15;3.53;;;;;;;-146.27;70.16;81231.31;5027688;28;20033;-70
2023/09/29 03:12:02;;;;;;;11.18;2.42;;;;;;;-146.27;70.18;81241.34;5019974;28;20033;-71
2023/09/29 03:14:27;;;;;;;13.05;3.03;;;;;;;-146.27;70.35;81215.22;5016381;28;20107;-70
2023/09/29 03:16:54;;;;;;;11.13;3.20;;;;;;;-146.27;70.75;81225.28;5024722;28;20033;-70
2023/09/29 03:19:20;;;;;;;13.07;3.58;;;;;;;-146.27;71.45;81275.47;5017722;28;20030;-70
2023/09/29 03:21:45;;;;;;;7.35;2.47;;;;;;;-146.27;71.33;81255.41;5029894;28;20056;-71
2023/09/29 03:24:10;;;;;;;12.77;3.75;;;;;;;-146.27;70.85;81253.38;5020083;28;20112;-70
2023/09/29 03:26:36;;;;;;;9.50;2.80;;;;;;;-146.27;70.77;81223.25;5025660;28;20096;-71
2023/09/29 03:29:01;;;;;;;15.98;3.00;;;;;;;-146.27;71.11;81251.38;5030526;28;20095;-70
2023/09/29 03:31:27;;;;;;;12.27;2.85;;;;;;;-146.27;70.84;81239.34;5021936;28;20493;-70
2023/09/29 03:33:52;;;;;;;13.10;3.03;;;;;;;-146.27;70.54;81229.28;5020161;28;20025;-70
2023/09/29 03:36:20;;;;;;;15.07;3.28;;;;;;;-146.27;71.08;81223.25;5026146;28;20022;-70
2023/09/29 03:38:46;;;;;;;8.30;2.88;;;;;;;-146.27;70.98;81223.25;5030203;28;20036;-70
2023/09/29 03:41:11;;;;;;;14.65;4.25;;;;;;;-146.27;70.79;81227.28;5027905;28;20029;-69
2023/09/29 03:43:37;;;;;;;12.38;3.47;;;;;;;-146.27;70.83;81205.19;5028144;28;20401;-70
2023/09/29 03:46:15;;;;;;;10.82;2.95;;;;;;;-146.27;70.51;81215.22;5017083;28;20030;-69
2023/09/29 03:48:46;;;;;;;14.43;3.55;;;;;;;-146.27;70.78;81203.19;5019499;28;20147;-70
2023/09/29 03:51:11;;;;;;;10.63;2.92;;;;;;;-146.27;70.44;81215.22;5022067;28;20022;-70
2023/09/29 03:53:38;;;;;;;13.40;2.53;;;;;;;-146.27;71.09;81243.34;5027748;28;20033;-69
2023/09/29 03:56:03;;;;;;;10.32;3.10;;;;;;;-146.27;70.89;81181.09;5019686;28;20535;-68
2023/09/29 03:58:29;;;;;;;11.88;3.08;;;;;;;-146.27;70.73;81191.13;5029677;28;20035;-68
2023/09/29 04:00:56;;;;;;;10.80;2.85;;;;;;;-146.27;70.44;81157.00;5024129;28;20575;-70
2023/09/29 04:03:22;;;;;;;11.05;2.80;;;;;;;-146.27;70.92;81183.09;5022511;28;20025;-70
2023/09/29 04:05:47;;;;;;;14.27;3.10;;;;;;;-146.27;70.89;81205.19;5019793;28;20382;-70
2023/09/29 04:08:12;;;;;;;11.18;3.15;;;;;;;-146.27;71.51;81207.19;5025277;28;20112;-70
2023/09/29 04:10:38;;;;;;;12.45;3.13;;;;;;;-146.27;71.07;81211.22;5020016;28;20033;-70
2023/09/29 04:13:03;;;;;;;11.25;2.65;;;;;;;-146.27;71.00;81195.16;5028835;28;20102;-71
2023/09/29 04:15:29;;;;;;;11.70;3.22;;;;;;;-146.27;71.07;81197.16;5024458;28;20084;-70
2023/09/29 04:17:55;;;;;;;10.95;2.83;;;;;;;-146.27;71.37;81207.19;5020803;28;20021;-70
2023/09/29 04:20:20;;;;;;;12.60;3.05;;;;;;;-146.27;71.47;81175.06;5042588;28;20112;-70
2023/09/29 04:22:46;;;;;;;13.40;3.35;;;;;;;-146.27;71.70;81175.06;5017678;28;20032;-69
2023/09/29 04:25:11;;;;;;;14.20;2.75;;;;;;;-146.27;72.10;81231.31;5026570;28;20025;-69
2023/09/29 04:27:38;;;;;;;17.15;3.30;;;;;;;-146.27;72.02;81251.38;5042066;28;20060;-69
2023/09/29 04:30:06;;;;;;;12.77;2.90;;;;;;;-146.27;72.25;81183.09;5029571;28;20489;-70
2023/09/29 04:32:32;;;;;;;12.55;3.20;;;;;;;-146.27;72.05;81163.03;5028695;28;20056;-69
2023/09/29 04:34:57;;;;;;;10.45;2.88;;;;;;;-146.27;72.37;81173.06;5025988;28;20089;-70
2023/09/29 04:37:22;;;;;;;9.45;2.58;;;;;;;-146.27;72.24;81163.03;5022495;28;20038;-69
2023/09/29 04:39:48;;;;;;;10.57;2.50;;;;;;;-146.27;72.16;81161.00;5012178;28;20026;-68
2023/09/29 04:42:14;;;;;;;7.75;2.38;;;;;;;-146.27;71.72;81152.97;5025137;28;20072;-69
2023/09/29 04:44:40;;;;;;;7.05;2.70;;;;;;;-146.27;71.73;81120.84;5019133;28;20485;-69
2023/09/29 04:47:06;;;;;;;9.20;2.50;;;;;;;-146.27;71.58;81106.78;5023392;28;20044;-71
2023/09/29 04:49:33;;;;;;;9.57;2.30;;;;;;;-146.27;71.77;81116.84;5019357;28;20026;-71
2023/09/29 04:51:58;;;;;;;8.02;3.17;;;;;;;-146.27;71.99;81128.88;5014294;28;20025;-70
2023/09/29 04:54:24;;;;;;;10.07;2.25;;;;;;;-146.27;71.79;81086.72;5012389;28;20080;-70
2023/09/29 04:56:49;;;;;;;7.60;2.47;;;;;;;-146.27;71.42;81078.69;5026002;28;20025;-70
2023/09/29 04:59:14;;;;;;;11.80;2.15;;;;;;;-146.27;71.20;81084.69;5024645;28;20026;-70
2023/09/29 05:01:41;;;;;;;8.43;2.40;;;;;;;-146.27;71.49;81050.56;5018394;28;20032;-69
2023/09/29 05:04:06;;;;;;;9.50;2.47;;;;;;;-146.27;71.90;81118.84;5018766;28;20145;-70
2023/09/29 05:06:32;;;;;;;6.28;2.60;;;;;;;-146.27;71.16;81024.47;5015844;28;20046;-70
2023/09/29 05:08:59;;;;;;;7.70;2.80;;;;;;;-146.27;71.57;81078.69;5013626;28;20108;-70
2023/09/29 05:11:26;;;;;;;12.07;2.58;;;;;;;-146.27;71.69;81094.75;5019595;28;20029;-70
2023/09/29 05:13:52;;;;;;;10.52;2.58;;;;;;;-146.27;71.13;81046.53;5012101;28;20129;-70
2023/09/29 05:16:18;;;;;;;5.53;2.20;;;;;;;-146.27;71.41;81074.66;5019717;28;20124;-70
2023/09/29 05:18:45;;;;;;;5.95;3.30;;;;;;;-146.27;71.24;81030.47;5027841;28;20030;-70
2023/09/29 05:21:14;;;;;;;5.70;2.30;;;;;;;-146.27;70.62;81000.34;5019262;28;20413;-70
2023/09/29 05:23:40;;;;;;;6.18;2.67;;;;;;;-146.27;71.15;81030.47;5029166;28;20100;-71
2023/09/29 05:26:07;;;;;;;7.43;2.33;;;;;;;-146.27;71.12;81004.38;5020000;28;20132;-70
2023/09/29 05:28:37;;;;;;;5.75;2.05;;;;;;;-146.27;71.07;80976.25;5019664;28;20031;-70
2023/09/29 05:31:03;;;;;;;11.80;2.53;;;;;;;-146.27;71.15;81010.41;5021689;28;20079;-70
2023/09/29 05:33:30;;;;;;;12.18;2.22;;;;;;;-146.27;71.30;81100.75;5025347;28;20061;-69
2023/09/29 05:35:56;;;;;;;9.38;2.53;;;;;;;-146.27;71.55;81008.41;5019334;28;20107;-69
2023/09/29 05:38:22;;;;;;;15.27;3.95;;;;;;;-146.27;71.64;81034.50;5021466;28;20032;-70
2023/09/29 05:40:51;;;;;;;10.07;2.47;;;;;;;-146.27;71.59;81000.34;5019755;28;20034;-71
2023/09/29 05:43:17;;;;;;;12.70;2.70;;;;;;;-146.27;71.63;80994.34;5020192;28;20047;-70
2023/09/29 05:45:45;;;;;;;7.20;2.45;;;;;;;-146.27;71.51;80974.25;5020986;28;20555;-71
2023/09/29 05:48:10;;;;;;;8.13;2.67;;;;;;;-146.27;72.27;81026.47;5018355;28;20104;-76
2023/09/29 05:50:36;;;;;;;11.23;3.22;;;;;;;-146.27;71.96;80954.19;5025028;28;20109;-71
2023/09/29 05:53:03;;;;;;;9.25;2.55;;;;;;;-146.27;72.19;81016.44;5016811;28;20044;-71
2023/09/29 05:55:28;;;;;;;9.48;2.90;;;;;;;-146.27;72.05;80980.28;5027569;28;20037;-72
2023/09/29 05:57:53;;;;;;;9.02;2.50;;;;;;;-146.27;72.60;80984.28;5009675;28;20552;-69
2023/09/29 06:00:19;;;;;;;6.38;2.50;;;;;;;-146.27;72.46;80980.28;5021982;28;20030;-72
2023/09/29 06:02:46;;;;;;;7.43;3.15;;;;;;;-146.27;72.24;80954.19;5021327;28;20026;-72
2023/09/29 06:05:12;;;;;;;7.80;2.90;;;;;;;-146.27;72.50;80954.19;5022069;28;20124;-71
2023/09/29 06:07:37;;;;;;;6.22;2.50;;;;;;;-146.27;72.76;80974.25;5025009;28;20096;-70
2023/09/29 06:10:04;;;;;;;6.90;2.88;;;;;;;-146.27;73.73;81024.47;5023949;28;20029;-69
2023/09/29 06:12:29;;;;;;;7.82;2.40;;;;;;;-146.27;72.99;80918.03;5014257;28;20120;-68
2023/09/29 06:14:56;;;;;;;6.32;2.33;;;;;;;-146.27;72.39;80871.84;5010697;28;20058;-70
2023/09/29 06:17:21;;;;;;;7.20;2.33;;;;;;;-146.27;72.79;80950.16;5010237;28;20121;-71
2023/09/29 06:19:46;;;;;;;8.13;2.25;;;;;;;-146.27;73.25;80946.13;5022800;28;20124;-71
2023/09/29 06:22:12;;;;;;;9.90;3.03;;;;;;;-146.27;72.94;80930.06;5023233;28;20033;-70
2023/09/29 06:24:37;;;;;;;7.30;2.58;;;;;;;-146.27;73.97;80994.34;5030490;28;20021;-68
2023/09/29 06:27:03;;;;;;;15.25;3.00;;;;;;;-146.27;73.86;80954.19;5021795;28;20061;-68
2023/09/29 06:29:29;;;;;;;8.23;2.53;;;;;;;-146.27;73.56;80889.91;5010603;28;20022;-70
2023/09/29 06:31:54;;;;;;;5.85;2.30;;;;;;;-146.27;73.45;80869.84;5025143;28;20045;-68
2023/09/29 06:34:20;;;;;;;8.77;2.28;;;;;;;-146.27;73.90;80905.97;5026547;28;20446;-69
2023/09/29 06:36:45;;;;;;;6.80;1.90;;;;;;;-146.27;73.04;80821.63;5012720;28;20406;-71
2023/09/29 06:39:12;;;;;;;7.82;2.67;;;;;;;-146.27;73.95;80867.81;5015132;28;20026;-72
2023/09/29 06:41:38;;;;;;;6.93;2.22;;;;;;;-146.27;73.78;80853.78;5022350;28;20108;-72
2023/09/29 06:44:03;;;;;;;4.63;2.70;;;;;;;-146.27;73.72;80791.53;5025998;28;20116;-72
2023/09/29 06:46:28;;;;;;;10.35;2.53;;;;;;;-146.27;74.64;80863.81;5010318;28;20157;-72
2023/09/29 06:48:54;;;;;;;8.70;2.58;;;;;;;-146.27;75.39;80863.81;5010271;28;20069;-71
2023/09/29 06:51:19;;;;;;;6.63;2.60;;;;;;;-146.27;77.30;80930.06;5011311;28;20555;-72
2023/09/29 06:53:45;;;;;;;12.07;2.70;;;;;;;-146.27;76.70;80821.63;5010213;28;20494;-71
2023/09/29 06:56:10;;;;;;;8.70;2.72;;;;;;;-146.27;76.71;80853.78;5012068;28;20029;-71
2023/09/29 06:58:36;;;;;;;14.27;3.53;;;;;;;-146.27;77.10;80887.91;5015704;28;20033;-72
2023/09/29 07:01:02;;;;;;;4.95;2.40;;;;;;;-146.27;78.04;80785.50;5026021;28;20651;-71
2023/09/29 07:03:30;;;;;;;9.13;3.10;;;;;;;-146.27;79.09;81004.38;5015418;28;20017;-72
2023/09/29 07:05:59;;;;;;;9.18;3.13;;;;;;;-146.27;78.95;80901.97;5011194;28;20109;-72
2023/09/29 07:08:25;;;;;;;7.10;3.53;;;;;;;-146.27;79.42;80956.19;5016316;28;20497;-72
2023/09/29 07:10:50;;;;;;;14.50;3.08;;;;;;;-146.27;79.50;80970.25;5017013;28;20014;-71
2023/09/29 07:13:16;;;;;;;8.85;2.97;;;;;;;-146.27;79.11;80910.00;5031356;28;20033;-71
2023/09/29 07:15:41;;;;;;;9.40;3.15;;;;;;;-146.27;78.96;80932.09;5027223;28;20045;-72
2023/09/29 07:18:10;;;;;;;13.93;3.10;;;;;;;-146.27;78.95;80908.00;5012957;28;20026;-70
2023/09/29 07:20:37;;;;;;;12.10;2.97;;;;;;;-146.27;78.72;80901.97;5023973;28;20079;-72
2023/09/29 07:23:03;;;;;;;11.63;2.75;;;;;;;-146.27;78.49;80841.72;5019912;28;20532;-72
2023/09/29 07:25:29;;;;;;;8.85;2.72;;;;;;;-146.27;78.39;80849.75;5026706;28;20073;-70
2023/09/29 07:27:54;;;;;;;9.75;2.95;;;;;;;-146.27;78.76;80785.50;5021351;28;20061;-71
2023/09/29 07:30:20;;;;;;;7.60;3.17;;;;;;;-146.27;79.09;80847.75;5025048;28;20063;-71
2023/09/29 07:32:45;;;;;;;11.80;3.30;;;;;;;-146.27;79.39;80809.59;5033312;28;20108;-70
2023/09/29 07:35:11;;;;;;;8.52;3.05;;;;;;;-146.27;79.21;80823.66;5025783;28;20111;-71
2023/09/29 07:37:38;;;;;;;13.55;2.88;;;;;;;-146.27;79.95;80893.94;5024939;28;22172;-71
2023/09/29 07:40:07;;;;;;;8.98;2.90;;;;;;;-146.27;79.31;80821.63;5026714;28;20030;-73
2023/09/29 07:42:32;;;;;;;9.05;2.75;;;;;;;-146.27;80.25;80873.84;5014588;28;20030;-72
2023/09/29 07:44:58;;;;;;;7.05;2.50;;;;;;;-146.27;80.65;80914.00;5027410;28;20024;-72
2023/09/29 07:47:23;;;;;;;8.43;2.63;;;;;;;-146.27;80.34;80889.91;5016951;28;20044;-71
2023/09/29 07:49:48;;;;;;;5.53;2.80;;;;;;;-146.27;81.41;80938.09;5019733;28;20028;-71
2023/09/29 07:52:14;;;;;;;7.30;2.70;;;;;;;-146.27;82.20;80972.25;5011033;28;20033;-70
2023/09/29 07:54:39;;;;;;;10.30;3.22;;;;;;;-146.27;81.27;80831.69;5022209;28;20450;-70
2023/09/29 07:57:04;;;;;;;10.70;2.88;;;;;;;-146.27;81.51;80934.09;5024473;28;20029;-69
2023/09/29 07:59:30;;;;;;;11.70;3.30;;;;;;;-146.27;81.11;80789.50;5013719;28;20417;-72
2023/09/29 08:01:57;;;;;;;9.18;3.20;;;;;;;-146.27;81.34;80817.63;5019701;28;20026;-71
2023/09/29 08:04:23;;;;;;;9.18;3.25;;;;;;;-146.27;81.11;80757.38;5014043;28;20037;-73
2023/09/29 08:06:48;;;;;;;7.60;2.92;;;;;;;-146.27;81.04;80747.34;5021114;28;20454;-73
2023/09/29 08:09:14;;;;;;;12.75;3.33;;;;;;;-146.27;81.03;80745.34;5019376;28;20049;-70
2023/09/29 08:11:41;;;;;;;12.63;3.20;;;;;;;-146.27;80.13;80701.16;5027400;28;20088;-72
2023/09/29 08:14:06;;;;;;;10.65;3.45;;;;;;;-146.27;80.71;80701.16;5017187;28;20064;-72
2023/09/29 08:16:32;;;;;;;10.23;2.80;;;;;;;-146.27;80.34;80701.16;5020627;28;20017;-72
2023/09/29 08:18:58;;;;;;;9.45;2.63;;;;;;;-146.27;80.25;80697.16;5017004;28;20034;-71
2023/09/29 08:21:23;;;;;;;9.48;3.20;;;;;;;-146.27;80.22;80715.22;5014055;28;20038;-72
2023/09/29 08:23:49;;;;;;;8.32;2.50;;;;;;;-146.27;80.15;80749.34;5019518;28;20030;-72
2023/09/29 08:26:15;;;;;;;5.63;2.63;;;;;;;-146.27;80.46;80769.44;5026281;28;20416;-71
2023/09/29 08:28:41;;;;;;;8.23;2.13;;;;;;;-146.27;78.84;80628.88;5015072;28;20029;-72
2023/09/29 08:31:17;;;;;;;7.00;2.55;;;;;;;-146.27;79.14;80761.41;5015647;28;20404;-71
2023/09/29 08:33:42;;;;;;;8.88;2.47;;;;;;;-146.27;79.01;80721.25;5015653;28;20029;-72
2023/09/29 08:36:16;;;;;;;8.00;2.83;;;;;;;-146.27;77.79;80580.69;5016072;28;20030;-72
2023/09/29 08:38:41;;;;;;;18.75;3.22;;;;;;;-146.27;77.89;80580.69;5010787;28;20036;-71
2023/09/29 08:41:08;;;;;;;8.18;2.55;;;;;;;-146.27;77.01;80468.25;5012998;28;20033;-72
2023/09/29 08:43:34;;;;;;;8.90;2.20;;;;;;;-146.27;77.12;80528.47;5020690;28;20024;-70
2023/09/29 08:45:59;;;;;;;6.90;2.53;;;;;;;-146.27;76.51;80404.00;5018299;28;20401;-72
2023/09/29 08:48:32;;;;;;;4.82;2.30;;;;;;;-146.27;76.96;80568.63;5013979;28;20025;-72
2023/09/29 08:51:01;;;;;;;4.70;2.05;;;;;;;-146.27;77.70;80600.75;5030990;28;20037;-73
2023/09/29 08:53:28;;;;;;;5.07;2.10;;;;;;;-146.27;77.74;80600.75;5020550;28;20100;-72
2023/09/29 08:55:54;;;;;;;7.07;2.20;;;;;;;-146.27;78.09;80620.84;5020714;28;20048;-71
2023/09/29 08:58:21;;;;;;;6.78;2.40;;;;;;;-146.27;77.42;80588.72;5017936;28;20530;-71
2023/09/29 09:00:47;;;;;;;5.38;2.10;;;;;;;-146.27;77.37;80558.59;5023257;28;20041;-72
2023/09/29 09:03:12;;;;;;;7.40;2.15;;;;;;;-146.27;76.93;80498.38;5022630;28;20030;-72
2023/09/29 09:05:37;;;;;;;7.97;2.70;;;;;;;-146.27;78.10;80598.75;5020774;28;20036;-71
2023/09/29 09:08:03;;;;;;;7.47;2.38;;;;;;;-146.27;77.63;80538.53;5028319;28;20072;-71
2023/09/29 09:10:33;;;;;;;4.15;2.05;;;;;;;-146.27;76.60;80444.16;5018090;28;20034;-72
2023/09/29 09:12:59;;;;;;;5.72;2.65;;;;;;;-146.27;77.07;80510.41;5011211;28;20030;-71
2023/09/29 09:15:24;;;;;;;6.32;2.30;;;;;;;-146.27;78.27;80594.75;5012237;28;20547;-73
2023/09/29 09:17:50;;;;;;;6.82;3.03;;;;;;;-146.27;77.15;80468.25;5040130;28;20111;-71
2023/09/29 09:20:16;;;;;;;8.25;2.50;;;;;;;-146.27;78.24;80530.50;5026099;28;20556;-71
2023/09/29 09:22:42;;;;;;;6.30;2.63;;;;;;;-146.27;79.18;80636.91;5014300;28;20042;-71
2023/09/29 09:25:11;;;;;;;4.85;2.40;;;;;;;-146.27;79.61;80650.97;5020002;28;20091;-71
2023/09/29 09:27:38;;;;;;;5.38;2.40;;;;;;;-146.27;79.84;80614.81;5020274;28;20080;-71
2023/09/29 09:30:05;;;;;;;5.85;2.92;;;;;;;-146.27;79.36;80616.84;5021410;28;20064;-72
2023/09/29 09:32:31;;;;;;;5.68;2.47;;;;;;;-146.27;81.00;80707.19;5017883;28;20120;-72
2023/09/29 09:34:59;;;;;;;5.18;2.40;;;;;;;-146.27;81.56;80787.50;5014532;28;20029;-72
2023/09/29 09:37:26;;;;;;;5.43;2.72;;;;;;;-146.27;81.63;80731.28;5026512;28;20043;-71
2023/09/29 09:39:54;;;;;;;3.40;2.42;;;;;;;-146.27;82.71;80755.38;5023331;28;20029;-71
2023/09/29 09:42:24;;;;;;;4.15;2.80;;;;;;;-146.27;82.78;80711.19;5014532;28;20029;-68
2023/09/29 09:44:50;;;;;;;4.78;2.22;;;;;;;-146.27;84.57;80825.66;5021107;28;20210;-71
2023/09/29 09:47:16;;;;;;;4.28;2.50;;;;;;;-146.27;83.93;80733.28;5022251;28;20022;-72
2023/09/29 09:49:47;;;;;;;5.07;2.22;;;;;;;-146.27;83.14;80665.03;5010908;28;20026;-72
2023/09/29 09:52:37;;;;;;;5.63;2.50;;;;;;;-146.27;82.08;80644.94;5024741;28;20025;-72
2023/09/29 09:55:10;;;;;;;4.32;2.78;;;;;;;-146.27;83.84;80761.41;5017747;28;20437;-72
2023/09/29 09:57:38;;;;;;;7.35;3.50;;;;;;;-146.27;84.12;80725.25;5018570;28;20029;-71
2023/09/29 10:00:10;;;;;;;3.40;2.40;;;;;;;-146.27;84.03;80763.41;5013609;28;20028;-71
2023/09/29 10:02:51;;;;;;;7.93;2.97;;;;;;;-146.27;84.01;80711.19;5017511;28;20035;-71
2023/09/29 10:05:24;;;;;;;5.38;2.67;;;;;;;-146.27;85.33;80821.63;5010500;28;20363;-70
2023/09/29 10:07:51;;;;;;;;;;;;;;;-146.27;85.53;80849.75;5027238;28;20053;-69
2023/09/29 10:10:28;;;;;;;2.92;1.67;;;;;;;-146.27;85.97;80950.16;5017334;28;19921;-69
2023/09/29 10:12:55;;;;;;;4.78;1.60;;;;;;;-146.27;86.57;81010.41;5013057;28;20100;-70
2023/09/29 10:15:20;;;;;;;5.53;1.55;;;;;;;-146.27;85.90;80958.19;5018234;28;20078;-70
2023/09/29 10:17:47;;;;;;;9.35;1.77;;;;;;;-146.27;85.90;81024.47;5026140;28;20498;-70
2023/09/29 10:20:26;;;;;;;7.43;1.40;;;;;;;-146.27;85.21;81000.34;5010152;28;20026;-70
2023/09/29 10:23:06;;;;;;;9.00;1.70;;;;;;;-146.27;85.14;80976.25;5010508;28;20033;-69
2023/09/29 10:25:33;;;;;;;8.05;1.55;;;;;;;-146.27;85.24;80962.22;5010194;28;20057;-68
2023/09/29 10:28:00;;;;;;;11.98;1.88;;;;;;;-146.27;85.24;81010.41;5011618;28;20116;-69
2023/09/29 10:30:27;;;;;;;6.85;1.60;;;;;;;-146.27;85.30;81068.63;5018102;28;20072;-69
2023/09/29 10:33:06;;;;;;;7.60;1.25;;;;;;;-146.27;85.80;81130.88;5028565;28;20072;-69
2023/09/29 10:35:33;;;;;;;7.15;1.60;;;;;;;-146.27;85.43;81070.66;5028696;28;20033;-69
2023/09/29 10:38:06;;;;;;;4.55;1.30;;;;;;;-146.27;85.56;81074.66;5022595;28;20026;-68
2023/09/29 10:40:32;;;;;;;9.90;1.65;;;;;;;-146.27;85.24;81058.59;5016561;28;20609;-68
2023/09/29 10:43:05;;;;;;;8.15;1.63;;;;;;;-146.27;85.75;81086.72;5029609;28;20030;-69
2023/09/29 10:45:40;;;;;;;8.38;1.40;;;;;;;-146.27;86.40;81209.22;5021078;28;20033;-69
2023/09/29 10:48:09;;;;;;;7.03;1.15;;;;;;;-146.27;85.51;81128.88;5030420;28;20041;-69
2023/09/29 10:50:48;;;;;;;4.07;1.40;;;;;;;-146.27;85.53;81179.09;5021888;28;20033;-69
2023/09/29 10:53:15;;;;;;;11.10;1.35;;;;;;;-146.27;84.80;81112.81;5024539;28;20053;-69
2023/09/29 10:55:48;;;;;;;9.40;2.75;;;;;;;-146.27;84.50;81098.75;5023827;28;20368;-69
2023/09/29 10:58:15;;;;;;;4.70;0.93;;;;;;;-146.27;85.19;81215.22;5025790;28;20078;-70
2023/09/29 11:00:47;;;;;;;5.43;1.00;;;;;;;-146.27;85.67;81283.50;5016987;28;20069;-70
2023/09/29 11:03:17;;;;;;;6.28;1.48;;;;;;;-146.27;85.34;81209.22;5013418;28;20029;-70
2023/09/29 11:05:53;;;;;;;9.60;1.60;;;;;;;-146.27;84.96;81146.97;5026668;28;20033;-69
2023/09/29 11:08:20;;;;;;;9.05;1.35;;;;;;;-146.27;85.18;81165.03;5028403;28;20025;-70
2023/09/29 11:10:57;;;;;;;5.85;1.60;;;;;;;-146.27;85.10;81150.97;5031438;28;20104;-70
2023/09/29 11:13:23;;;;;;;7.60;1.33;;;;;;;-146.27;83.96;81074.66;5016662;28;20030;-69